Morrow, Arkansas
Current Conditions -  °F | °C
As of 5:53 AM on Friday 28 Nov 2014 (Local Time) from KFYV Reporting Station
Clear Clear  
Wind Chill: 29°   Ceiling: Unl
Heat Index: 38°   Visibility: 10mi
Dew Point: 27°   Wind: 17mph
Humidity: 65%   Direction: 200°SSW
Pressure: 30.21"   Gusts: 28mph
Location:  35.86°N, 94.44°W
Report Text: KFYV 281153Z 20015G24KT 10SM CLR 03/M03 A3021 RMK AO2 SLP237 T00331028 10033 20000 58025
Loading
Personal Weather Stations






























Interactive Weather Map New forecast layout! Learn more

10-Day Weather Forecast

Advertisements
Track Severe Weather on mobile